Agar, South Dakota
Current Conditions -  °F | °C
As of 2:53 PM on Tuesday 25 Nov 2014 (Local Time) from KPIR Reporting Station
Overcast Overcast  
Wind Chill: -2°   Ceiling: 7500
Heat Index:   Visibility: 10mi
Dew Point: -2°   Wind: 10mph
Humidity: 73%   Direction: 120°ESE
Pressure: 29.74"   Gusts: NA
Location:  44.84°N, 100.07°W
Report Text: KPIR 252053Z AUTO 12009KT 10SM FEW065 OVC075 02/M02 A2974 RMK AO2 RAB1957E04SNE1957 SLP088 P0000 60000 T00221022 56031
Loading
Personal Weather Stations






























Interactive Weather Map New forecast layout! Learn more

10-Day Weather Forecast

Advertisements
Track Severe Weather on mobile